createdAt,value
2018-09-04T00:02:27.406Z,54.88
2018-09-04T00:04:55.928Z,55.22
2018-09-04T00:07:24.332Z,56.48
2018-09-04T00:09:53.254Z,56.78
2018-09-04T00:12:21.623Z,56.56
2018-09-04T00:14:50.080Z,56.09
2018-09-04T00:17:18.529Z,56.21
2018-09-04T00:19:47.009Z,56.36
2018-09-04T00:22:15.491Z,56.03
2018-09-04T00:24:44.106Z,56.37
2018-09-04T00:27:12.486Z,56.39
2018-09-04T00:29:40.977Z,56.37
2018-09-04T00:32:09.365Z,55.85
2018-09-04T00:34:37.953Z,55.79
2018-09-04T00:37:06.392Z,56.49
2018-09-04T00:39:34.894Z,56.09
2018-09-04T00:42:03.421Z,56.76
2018-09-04T00:44:31.799Z,56.82
2018-09-04T00:47:00.210Z,57.00
2018-09-04T00:49:28.638Z,56.86
2018-09-04T00:51:57.033Z,56.33
2018-09-04T00:54:25.495Z,56.23
2018-09-04T00:56:53.915Z,56.58
2018-09-04T00:59:22.313Z,57.01
2018-09-04T01:01:50.709Z,56.32
2018-09-04T01:04:19.166Z,56.00
2018-09-04T01:06:47.570Z,55.99
2018-09-04T01:09:19.387Z,55.05
2018-09-04T01:11:47.923Z,54.88
2018-09-04T01:14:16.372Z,55.43
2018-09-04T01:16:45.520Z,55.41
2018-09-04T01:19:14.301Z,55.65
2018-09-04T01:21:42.793Z,56.02
2018-09-04T01:24:11.737Z,56.16
2018-09-04T01:26:40.296Z,56.64
2018-09-04T01:29:09.279Z,56.55
2018-09-04T01:31:37.702Z,56.36
2018-09-04T01:34:06.122Z,55.45
2018-09-04T01:36:34.537Z,55.75
2018-09-04T01:39:03.435Z,55.88
2018-09-04T01:41:32.002Z,56.32
2018-09-04T01:44:00.511Z,56.34
2018-09-04T01:46:29.097Z,56.23
2018-09-04T01:48:57.566Z,55.90
2018-09-04T01:51:25.925Z,55.18
2018-09-04T01:54:05.175Z,55.85
2018-09-04T01:56:33.624Z,55.71
2018-09-04T01:59:02.158Z,56.29
2018-09-04T02:01:30.638Z,55.73
2018-09-04T02:03:59.118Z,56.33
2018-09-04T02:06:27.550Z,56.42
2018-09-04T02:08:55.925Z,56.03
2018-09-04T02:11:24.407Z,56.29
2018-09-04T02:13:52.846Z,55.63
2018-09-04T02:16:21.341Z,56.10
2018-09-04T02:18:50.040Z,56.96
2018-09-04T02:21:18.455Z,56.63
2018-09-04T02:23:46.940Z,56.34
2018-09-04T02:26:15.387Z,55.49
2018-09-04T02:28:43.817Z,56.30
2018-09-04T02:31:12.246Z,55.93
2018-09-04T02:33:41.329Z,56.10
2018-09-04T02:36:09.752Z,55.79
2018-09-04T02:38:38.631Z,56.66
2018-09-04T02:41:07.446Z,56.09
2018-09-04T02:43:35.930Z,56.17
2018-09-04T02:46:04.708Z,55.73
2018-09-04T02:48:33.275Z,55.55
2018-09-04T02:51:07.877Z,55.40
2018-09-04T02:53:36.379Z,56.33
2018-09-04T02:56:05.127Z,57.09
2018-09-04T02:58:33.616Z,57.51
2018-09-04T03:01:02.226Z,56.73
2018-09-04T03:03:30.789Z,56.99
2018-09-04T03:05:59.335Z,56.68
2018-09-04T03:08:28.337Z,56.14
2018-09-04T03:10:56.659Z,56.32
2018-09-04T03:13:25.024Z,55.81
2018-09-04T03:15:53.534Z,55.65
2018-09-04T03:18:22.457Z,56.63
2018-09-04T03:20:50.856Z,56.39
2018-09-04T03:23:19.285Z,55.48
2018-09-04T03:25:47.938Z,55.59
2018-09-04T03:28:16.610Z,55.78
2018-09-04T03:30:45.028Z,55.91
2018-09-04T03:33:13.465Z,56.48
2018-09-04T03:35:41.833Z,56.83
2018-09-04T03:38:10.251Z,57.24
2018-09-04T03:40:38.625Z,56.70
2018-09-04T03:43:07.693Z,55.95
2018-09-04T03:45:36.609Z,57.18
2018-09-04T03:48:05.326Z,57.11
2018-09-04T03:50:33.688Z,57.04
2018-09-04T03:53:02.037Z,56.26
2018-09-04T03:55:30.459Z,56.99
2018-09-04T03:57:58.834Z,56.11
2018-09-04T04:00:27.294Z,56.47
2018-09-04T04:02:55.664Z,56.72
2018-09-04T04:05:24.173Z,56.31
2018-09-04T04:07:52.619Z,56.55
2018-09-04T04:10:21.006Z,55.75
2018-09-04T04:12:49.384Z,55.73
2018-09-04T04:15:18.265Z,56.27
2018-09-04T04:17:46.656Z,55.43
2018-09-04T04:20:15.130Z,55.41
2018-09-04T04:22:43.662Z,54.96
2018-09-04T04:25:12.119Z,55.90
2018-09-04T04:27:41.025Z,56.46
2018-09-04T04:30:09.477Z,56.95
2018-09-04T04:32:37.952Z,56.23
2018-09-04T04:35:06.845Z,55.92
2018-09-04T04:37:35.302Z,57.22
2018-09-04T04:40:03.917Z,56.89
2018-09-04T04:42:32.280Z,57.99
2018-09-04T04:45:00.655Z,57.81
2018-09-04T04:47:34.223Z,58.67
2018-09-04T04:50:02.614Z,57.19
2018-09-04T04:52:30.990Z,55.77
2018-09-04T04:54:59.379Z,55.85
2018-09-04T04:57:27.789Z,54.77
2018-09-04T04:59:56.193Z,56.23
2018-09-04T05:02:24.613Z,56.76
2018-09-04T05:04:53.040Z,55.72
2018-09-04T05:07:21.542Z,56.81
2018-09-04T05:09:49.925Z,56.48
2018-09-04T05:12:18.336Z,55.47
2018-09-04T05:14:46.810Z,55.14
2018-09-04T05:17:15.265Z,56.33
2018-09-04T05:19:43.673Z,55.03
2018-09-04T05:22:12.132Z,54.82
2018-09-04T05:24:40.605Z,53.90
2018-09-04T05:27:09.050Z,53.49
2018-09-04T05:29:37.728Z,54.13
2018-09-04T05:32:11.564Z,54.52
2018-09-04T05:34:40.030Z,53.97
2018-09-04T05:37:08.420Z,53.90
2018-09-04T05:39:36.894Z,53.99
2018-09-04T05:42:10.696Z,53.86
2018-09-04T05:44:39.108Z,53.24
2018-09-04T05:47:07.610Z,52.97
2018-09-04T05:49:36.014Z,53.13
2018-09-04T05:52:04.638Z,53.67
2018-09-04T05:54:33.121Z,53.22
2018-09-04T05:57:01.757Z,53.79
2018-09-04T05:59:30.460Z,52.85
2018-09-04T06:01:59.045Z,52.76
2018-09-04T06:04:27.478Z,52.56
2018-09-04T06:06:55.865Z,51.87
2018-09-04T06:09:24.236Z,52.83
2018-09-04T06:11:52.578Z,51.64
2018-09-04T06:14:21.012Z,52.02
2018-09-04T06:16:49.605Z,51.94
2018-09-04T06:19:18.082Z,51.44
2018-09-04T06:21:46.530Z,51.14
2018-09-04T06:24:14.978Z,50.96
2018-09-04T06:26:43.416Z,50.49
2018-09-04T06:29:11.832Z,51.49
2018-09-04T06:31:40.203Z,51.52
2018-09-04T06:34:08.782Z,51.42
2018-09-04T06:36:37.371Z,52.33
2018-09-04T06:39:08.850Z,51.45
2018-09-04T06:41:37.292Z,50.00
2018-09-04T06:44:05.714Z,50.26
2018-09-04T06:46:34.169Z,50.35
2018-09-04T06:49:02.657Z,48.25
2018-09-04T06:51:31.036Z,49.02
2018-09-04T06:53:59.486Z,48.80
2018-09-04T06:56:28.847Z,49.25
2018-09-04T06:58:57.217Z,49.36
2018-09-04T07:01:25.602Z,49.10
2018-09-04T07:03:54.022Z,48.68
2018-09-04T07:06:22.436Z,47.75
2018-09-04T07:08:50.898Z,47.87
2018-09-04T07:11:19.429Z,47.23
2018-09-04T07:13:48.011Z,46.84
2018-09-04T07:16:16.584Z,46.89
2018-09-04T07:18:44.970Z,46.32
2018-09-04T07:21:13.479Z,45.36
2018-09-04T07:23:41.903Z,46.30
2018-09-04T07:26:10.405Z,45.58
2018-09-04T07:28:38.838Z,46.00
2018-09-04T07:31:07.772Z,45.92
2018-09-04T07:33:36.876Z,46.09
2018-09-04T07:36:05.619Z,45.42
2018-09-04T07:38:34.073Z,45.62
2018-09-04T07:41:02.462Z,43.66
2018-09-04T07:43:30.842Z,43.27
2018-09-04T07:45:59.255Z,43.46
2018-09-04T07:48:27.703Z,43.03
2018-09-04T07:50:56.111Z,42.46
2018-09-04T07:53:24.574Z,43.31
2018-09-04T07:55:52.942Z,42.47
2018-09-04T07:58:21.335Z,43.60
2018-09-04T08:00:49.821Z,43.60
2018-09-04T08:03:18.167Z,42.67
2018-09-04T08:05:46.778Z,41.77
2018-09-04T08:08:15.226Z,40.96
2018-09-04T08:10:43.649Z,42.78
2018-09-04T08:13:12.149Z,42.54
2018-09-04T08:15:40.578Z,42.75
2018-09-04T08:18:08.965Z,44.83
2018-09-04T08:20:40.384Z,43.83
2018-09-04T08:23:08.668Z,41.92
2018-09-04T08:25:37.191Z,42.06
2018-09-04T08:28:05.785Z,41.82
2018-09-04T08:30:34.284Z,42.67
2018-09-04T08:33:03.360Z,41.80
2018-09-04T08:35:31.773Z,41.51
2018-09-04T08:38:01.224Z,41.09
2018-09-04T08:40:31.409Z,40.29
2018-09-04T08:42:59.775Z,39.23
2018-09-04T08:45:28.631Z,41.20
2018-09-04T08:47:59.945Z,39.10
2018-09-04T08:50:29.585Z,38.71
2018-09-04T08:52:58.949Z,39.78
2018-09-04T08:55:27.584Z,40.96
2018-09-04T08:57:55.994Z,39.48
2018-09-04T09:00:24.466Z,40.53
2018-09-04T09:02:52.828Z,40.29
2018-09-04T09:05:21.220Z,39.72
2018-09-04T09:07:49.579Z,39.34
2018-09-04T09:10:18.225Z,37.72
2018-09-04T09:12:46.674Z,40.35
2018-09-04T09:15:15.185Z,42.07
2018-09-04T09:17:43.568Z,41.05
2018-09-04T09:20:11.940Z,40.15
2018-09-04T09:22:40.397Z,40.22
2018-09-04T09:25:08.849Z,39.91
2018-09-04T09:27:37.318Z,39.40
2018-09-04T09:30:05.881Z,39.73
2018-09-04T09:32:34.320Z,41.21
2018-09-04T09:35:02.737Z,40.76
2018-09-04T09:37:31.855Z,40.03
2018-09-04T09:40:00.286Z,38.70
2018-09-04T09:42:28.689Z,39.19
2018-09-04T09:44:57.168Z,41.49
2018-09-04T09:47:25.600Z,38.70
2018-09-04T09:49:54.026Z,38.59
2018-09-04T09:52:22.481Z,36.80
2018-09-04T09:54:50.900Z,36.44
2018-09-04T09:57:19.226Z,36.72
2018-09-04T09:59:47.700Z,33.74
2018-09-04T10:02:21.246Z,33.63
2018-09-04T10:04:49.663Z,35.48
2018-09-04T10:07:18.097Z,35.57
2018-09-04T10:09:46.581Z,33.87
2018-09-04T10:12:15.033Z,33.72
2018-09-04T10:14:43.473Z,33.89
2018-09-04T10:17:11.909Z,34.47
2018-09-04T10:19:40.395Z,35.18
2018-09-04T10:22:08.870Z,31.63
2018-09-04T10:24:37.285Z,33.09
2018-09-04T10:27:06.131Z,33.10
2018-09-04T10:29:34.532Z,30.70
2018-09-04T10:32:02.928Z,32.30
2018-09-04T10:34:31.303Z,32.09
2018-09-04T10:36:59.656Z,32.98
2018-09-04T10:39:33.335Z,32.64
2018-09-04T10:42:02.222Z,32.19
2018-09-04T10:44:32.517Z,29.60
2018-09-04T10:47:01.911Z,30.09
2018-09-04T10:49:30.343Z,31.12
2018-09-04T10:51:58.756Z,30.12
2018-09-04T10:54:27.198Z,31.13
2018-09-04T10:56:55.664Z,30.01
2018-09-04T10:59:24.117Z,31.37
2018-09-04T11:01:52.595Z,30.92
2018-09-04T11:04:20.975Z,30.79
2018-09-04T11:06:49.271Z,30.74
2018-09-04T11:09:17.725Z,30.41
2018-09-04T11:11:46.132Z,29.99
2018-09-04T11:14:14.553Z,29.98
2018-09-04T11:16:43.620Z,29.88
2018-09-04T11:19:12.022Z,31.19
2018-09-04T11:21:40.613Z,31.37
2018-09-04T11:24:09.000Z,31.89
2018-09-04T11:26:37.424Z,30.63
2018-09-04T11:29:07.512Z,33.30
2018-09-04T11:31:35.938Z,31.75
2018-09-04T11:34:04.280Z,32.37
2018-09-04T11:36:32.606Z,30.19
2018-09-04T11:39:00.996Z,28.91
2018-09-04T11:41:29.397Z,28.64
2018-09-04T11:43:57.789Z,28.97
2018-09-04T11:46:26.780Z,30.27
2018-09-04T11:48:55.218Z,28.30
2018-09-04T11:51:23.648Z,28.71
2018-09-04T11:53:52.066Z,29.03
2018-09-04T11:56:20.903Z,29.54
2018-09-04T11:58:49.873Z,28.96
2018-09-04T12:01:20.558Z,28.84
2018-09-04T12:03:49.120Z,29.64
2018-09-04T12:06:17.497Z,27.93
2018-09-04T12:08:46.297Z,29.11
2018-09-04T12:11:14.724Z,28.89
2018-09-04T12:13:43.328Z,28.99
2018-09-04T12:16:11.875Z,28.39
2018-09-04T12:18:40.182Z,26.82
2018-09-04T12:21:10.007Z,25.40
2018-09-04T12:23:38.460Z,26.10
2018-09-04T12:26:08.499Z,25.24
2018-09-04T12:28:37.144Z,27.35
2018-09-04T12:31:06.074Z,27.45
2018-09-04T12:33:34.450Z,26.73
2018-09-04T12:36:02.969Z,25.55
2018-09-04T12:38:32.837Z,22.49
2018-09-04T12:41:06.850Z,21.24
2018-09-04T12:43:37.737Z,19.63
2018-09-04T12:46:06.750Z,19.27
2018-09-04T12:48:35.290Z,16.92
2018-09-04T12:51:04.255Z,16.06
2018-09-04T12:53:33.585Z,15.96
2018-09-04T12:56:02.140Z,15.73
2018-09-04T12:58:30.617Z,13.61
2018-09-04T13:00:59.542Z,16.36
2018-09-04T13:03:29.045Z,17.26
2018-09-04T13:05:57.669Z,16.05
2018-09-04T13:08:28.338Z,14.36
2018-09-04T13:10:56.699Z,15.39
2018-09-04T13:13:25.166Z,16.53
2018-09-04T13:15:58.714Z,15.37
2018-09-04T13:18:27.970Z,13.46
2018-09-04T13:21:05.746Z,12.86
2018-09-04T13:23:35.416Z,13.32
2018-09-04T13:26:04.298Z,12.87
2018-09-04T13:28:33.515Z,14.39
2018-09-04T13:31:01.907Z,13.47
2018-09-04T13:33:30.306Z,16.15
2018-09-04T13:35:58.751Z,14.53
2018-09-04T13:38:27.273Z,15.01
2018-09-04T13:41:00.953Z,13.97
2018-09-04T13:43:29.350Z,13.30
2018-09-04T13:45:58.257Z,12.88
2018-09-04T13:48:29.669Z,12.17
2018-09-04T13:50:58.313Z,12.57
2018-09-04T13:53:27.292Z,13.81
2018-09-04T13:55:55.824Z,13.80
2018-09-04T13:58:24.247Z,13.55
2018-09-04T14:00:52.677Z,13.09
2018-09-04T14:03:21.014Z,11.84
2018-09-04T14:05:49.499Z,11.48
2018-09-04T14:08:18.104Z,11.64
2018-09-04T14:10:46.499Z,11.48
2018-09-04T14:13:14.898Z,11.62
2018-09-04T14:15:43.324Z,12.13
2018-09-04T14:18:12.052Z,14.25
2018-09-04T14:20:40.469Z,13.37
2018-09-04T14:23:09.213Z,13.62
2018-09-04T14:25:37.607Z,14.09
2018-09-04T14:28:06.167Z,13.63
2018-09-04T14:30:34.659Z,13.93
2018-09-04T14:33:03.011Z,16.34
2018-09-04T14:35:31.431Z,17.76
2018-09-04T14:37:59.873Z,18.58
2018-09-04T14:40:28.521Z,19.52
2018-09-04T14:42:57.048Z,20.06
2018-09-04T14:45:25.569Z,19.34
2018-09-04T14:47:53.987Z,19.48
2018-09-04T14:50:22.381Z,20.67
2018-09-04T14:52:50.828Z,21.18
2018-09-04T14:55:19.305Z,21.35
2018-09-04T14:57:47.913Z,21.17
2018-09-04T15:00:16.487Z,17.68
2018-09-04T15:02:44.857Z,16.72
2018-09-04T15:05:13.261Z,15.11
2018-09-04T15:07:41.941Z,14.89
2018-09-04T15:10:10.465Z,13.42
2018-09-04T15:12:39.049Z,13.55
2018-09-04T15:15:08.139Z,13.11
2018-09-04T15:17:36.867Z,12.29
2018-09-04T15:20:05.254Z,12.28
2018-09-04T15:22:34.060Z,13.16
2018-09-04T15:25:02.700Z,12.92
2018-09-04T15:27:31.110Z,12.47
2018-09-04T15:29:59.524Z,12.22
2018-09-04T15:32:27.925Z,12.22
2018-09-04T15:34:56.323Z,12.19
2018-09-04T15:37:24.800Z,11.80
2018-09-04T15:39:53.202Z,12.55
2018-09-04T15:42:21.634Z,12.26
2018-09-04T15:44:50.046Z,14.15
2018-09-04T15:47:18.790Z,16.46
2018-09-04T15:49:48.294Z,17.60
2018-09-04T15:52:17.481Z,18.87
2018-09-04T15:54:45.990Z,20.31
2018-09-04T15:57:15.411Z,20.71
2018-09-04T15:59:43.864Z,21.34
2018-09-04T16:02:12.217Z,21.57
2018-09-04T16:04:40.631Z,21.29
2018-09-04T16:07:09.068Z,22.13
2018-09-04T16:09:37.481Z,21.87
2018-09-04T16:12:05.876Z,21.20
2018-09-04T16:14:34.320Z,20.49
2018-09-04T16:17:02.725Z,20.07
2018-09-04T16:19:31.137Z,19.48
2018-09-04T16:21:59.725Z,18.82
2018-09-04T16:24:28.320Z,18.51
2018-09-04T16:26:56.748Z,18.89
2018-09-04T16:29:25.160Z,20.52
2018-09-04T16:31:53.610Z,20.97
2018-09-04T16:34:22.086Z,21.87
2018-09-04T16:36:50.429Z,24.93
2018-09-04T16:39:19.263Z,24.04
2018-09-04T16:41:47.721Z,24.72
2018-09-04T16:44:16.110Z,24.15
2018-09-04T16:46:44.616Z,22.98
2018-09-04T16:49:13.243Z,22.31
2018-09-04T16:51:41.705Z,23.37
2018-09-04T16:54:10.132Z,24.23
2018-09-04T16:56:38.610Z,25.26
2018-09-04T16:59:07.054Z,26.81
2018-09-04T17:01:35.500Z,26.61
2018-09-04T17:04:04.218Z,27.48
2018-09-04T17:06:32.615Z,27.82
2018-09-04T17:09:01.021Z,28.46
2018-09-04T17:11:29.401Z,29.32
2018-09-04T17:13:57.808Z,28.63
2018-09-04T17:16:26.234Z,29.44
2018-09-04T17:18:54.850Z,28.80
2018-09-04T17:21:23.299Z,29.41
2018-09-04T17:23:51.683Z,29.77
2018-09-04T17:26:20.124Z,30.38
2018-09-04T17:28:48.520Z,31.93
2018-09-04T17:31:17.067Z,31.81
2018-09-04T17:33:45.478Z,31.74
2018-09-04T17:36:13.828Z,32.13
2018-09-04T17:38:42.315Z,33.41
2018-09-04T17:41:10.676Z,33.65
2018-09-04T17:43:39.073Z,33.74
2018-09-04T17:46:07.670Z,34.20
2018-09-04T17:48:36.107Z,34.54
2018-09-04T17:51:04.707Z,35.17
2018-09-04T17:53:33.149Z,34.56
2018-09-04T17:56:01.663Z,35.14
2018-09-04T17:58:30.149Z,35.42
2018-09-04T18:00:58.631Z,35.55
2018-09-04T18:03:26.986Z,36.02
2018-09-04T18:05:55.474Z,35.78
2018-09-04T18:08:23.934Z,36.03
2018-09-04T18:10:52.446Z,36.23
2018-09-04T18:13:21.309Z,36.60
2018-09-04T18:15:49.740Z,36.71
2018-09-04T18:18:18.275Z,37.33
2018-09-04T18:20:46.782Z,37.64
2018-09-04T18:23:16.120Z,37.98
2018-09-04T18:25:44.542Z,38.38
2018-09-04T18:28:13.013Z,38.07
2018-09-04T18:30:41.424Z,37.96
2018-09-04T18:33:09.826Z,38.29
2018-09-04T18:35:38.218Z,38.54
2018-09-04T18:38:06.716Z,39.16
2018-09-04T18:40:35.111Z,39.02
2018-09-04T18:43:03.553Z,38.47
2018-09-04T18:45:42.561Z,38.73
2018-09-04T18:48:11.085Z,39.36
2018-09-04T18:50:39.549Z,39.17
2018-09-04T18:53:07.931Z,39.91
2018-09-04T18:55:36.493Z,40.29
2018-09-04T18:58:05.233Z,40.80
2018-09-04T19:00:33.662Z,41.05
2018-09-04T19:03:02.132Z,41.46
2018-09-04T19:05:30.866Z,41.29
2018-09-04T19:07:59.911Z,41.85
2018-09-04T19:10:28.658Z,42.20
2018-09-04T19:12:57.393Z,41.25
2018-09-04T19:15:26.202Z,42.18
2018-09-04T19:17:54.653Z,42.12
2018-09-04T19:20:23.503Z,41.51
2018-09-04T19:22:52.364Z,42.99
2018-09-04T19:25:20.872Z,41.90
2018-09-04T19:27:49.317Z,42.59
2018-09-04T19:30:17.752Z,43.08
2018-09-04T19:32:46.110Z,41.67
2018-09-04T19:35:14.531Z,42.40
2018-09-04T19:37:42.935Z,41.12
2018-09-04T19:40:11.695Z,42.13
2018-09-04T19:42:41.027Z,42.97
2018-09-04T19:45:09.503Z,42.95
2018-09-04T19:47:38.248Z,42.04
2018-09-04T19:50:07.927Z,43.27
2018-09-04T19:52:36.692Z,42.91
2018-09-04T19:55:05.256Z,44.44
2018-09-04T19:57:33.625Z,43.85
2018-09-04T20:00:02.033Z,43.75
2018-09-04T20:02:30.454Z,45.04
2018-09-04T20:04:58.871Z,44.77
2018-09-04T20:07:27.352Z,45.34
2018-09-04T20:09:55.953Z,44.42
2018-09-04T20:12:24.318Z,44.22
2018-09-04T20:14:53.544Z,44.73
2018-09-04T20:17:22.101Z,45.15
2018-09-04T20:19:50.496Z,46.37
2018-09-04T20:22:18.947Z,47.68
2018-09-04T20:24:47.430Z,48.06
2018-09-04T20:27:15.800Z,47.27
2018-09-04T20:29:44.248Z,46.11
2018-09-04T20:32:12.681Z,47.61
2018-09-04T20:34:41.109Z,48.09
2018-09-04T20:37:09.549Z,47.28
2018-09-04T20:39:38.133Z,48.62
2018-09-04T20:42:06.579Z,49.31
2018-09-04T20:44:35.192Z,48.99
2018-09-04T20:47:03.685Z,48.49
2018-09-04T20:49:32.167Z,48.27
2018-09-04T20:52:00.663Z,49.33
2018-09-04T20:54:29.184Z,49.38
2018-09-04T20:57:32.044Z,49.63
2018-09-04T21:00:13.420Z,48.31
2018-09-04T21:02:53.237Z,48.94
2018-09-04T21:05:33.110Z,47.97
2018-09-04T21:08:43.467Z,48.37
2018-09-04T21:11:11.856Z,47.65
2018-09-04T21:13:40.180Z,48.12
2018-09-04T21:16:08.622Z,48.80
2018-09-04T21:18:37.035Z,49.06
2018-09-04T21:21:05.700Z,48.11
2018-09-04T21:23:34.164Z,48.90
2018-09-04T21:26:02.538Z,49.65
2018-09-04T21:28:30.962Z,48.83
2018-09-04T21:30:59.385Z,48.16
2018-09-04T21:33:28.402Z,47.55
2018-09-04T21:35:56.780Z,47.23
2018-09-04T21:38:25.213Z,48.96
2018-09-04T21:40:53.619Z,47.42
2018-09-04T21:43:21.955Z,48.68
2018-09-04T21:45:50.337Z,47.76
2018-09-04T21:48:18.764Z,47.88
2018-09-04T21:50:47.162Z,49.20
2018-09-04T21:53:15.897Z,47.80
2018-09-04T21:55:44.370Z,47.79
2018-09-04T21:58:12.760Z,46.42
2018-09-04T22:00:41.846Z,46.17
2018-09-04T22:03:10.594Z,47.59
2018-09-04T22:05:40.621Z,47.79
2018-09-04T22:08:09.402Z,48.30
2018-09-04T22:10:37.972Z,47.78
2018-09-04T22:13:07.549Z,48.18
2018-09-04T22:15:35.969Z,46.82
2018-09-04T22:18:04.343Z,47.63
2018-09-04T22:20:33.188Z,47.82
2018-09-04T22:23:01.842Z,48.99
2018-09-04T22:25:30.580Z,48.27
2018-09-04T22:27:59.184Z,49.38
2018-09-04T22:30:27.708Z,49.58
2018-09-04T22:32:56.608Z,49.68
2018-09-04T22:35:25.377Z,50.23
2018-09-04T22:37:54.027Z,50.17
2018-09-04T22:40:22.608Z,50.68
2018-09-04T22:42:51.054Z,49.13
2018-09-04T22:45:19.661Z,49.43
2018-09-04T22:47:48.126Z,50.63
2018-09-04T22:50:21.700Z,50.74
2018-09-04T22:52:50.095Z,52.21
2018-09-04T22:55:19.089Z,51.84
2018-09-04T22:57:47.544Z,52.70
2018-09-04T23:00:16.795Z,51.53
2018-09-04T23:02:45.355Z,52.08
2018-09-04T23:05:14.443Z,52.57
2018-09-04T23:07:43.144Z,51.60
2018-09-04T23:10:11.616Z,52.24
2018-09-04T23:12:40.025Z,52.25
2018-09-04T23:15:08.618Z,52.34
2018-09-04T23:17:37.404Z,53.18
2018-09-04T23:20:06.217Z,52.84
2018-09-04T23:22:34.686Z,51.76
2018-09-04T23:25:03.127Z,52.85
2018-09-04T23:27:31.537Z,52.55
2018-09-04T23:30:00.000Z,53.28
2018-09-04T23:32:28.407Z,53.41
2018-09-04T23:34:56.788Z,52.95
2018-09-04T23:37:25.232Z,53.58
2018-09-04T23:39:53.613Z,52.81
2018-09-04T23:42:22.020Z,53.75
2018-09-04T23:44:50.407Z,53.57
2018-09-04T23:47:18.939Z,53.57
2018-09-04T23:49:47.411Z,52.55
2018-09-04T23:52:16.061Z,53.58
2018-09-04T23:54:44.484Z,53.31
2018-09-04T23:57:12.922Z,53.26
2018-09-04T23:59:41.403Z,53.67
